Time;durP1;ratioP1;P1;durP2;ratioP2;P2;SDS_P1;SDS_P2;PMS_P1;PMS_P2;Temp;Humidity;BMP_temperature;BMP_pressure;BME280_temperature;BME280_humidity;BME280_pressure;Samples;Min_cycle;Max_cycle;Signal;HPM_P1;HPM_P2
2022/01/05 00:00:34;;;;;;;4.05;1.90;;;;;;;19.13;58.93;98953.91;5057019;28;20115;-90
2022/01/05 00:03:00;;;;;;;4.35;2.22;;;;;;;19.14;59.10;98950.31;5057144;28;20039;-89
2022/01/05 00:05:26;;;;;;;5.57;2.40;;;;;;;19.16;59.02;98948.41;5056718;28;20021;-90
2022/01/05 00:07:51;;;;;;;4.57;1.83;;;;;;;19.19;58.98;98945.59;5057887;28;20104;-91
2022/01/05 00:10:17;;;;;;;4.80;2.08;;;;;;;19.20;58.96;98939.38;5056974;28;20048;-91
2022/01/05 00:12:43;;;;;;;5.45;2.25;;;;;;;19.23;58.83;98948.91;5057681;28;20033;-92
2022/01/05 00:15:09;;;;;;;3.53;1.73;;;;;;;19.24;58.98;98943.53;5056719;28;20060;-91
2022/01/05 00:17:35;;;;;;;5.47;2.13;;;;;;;19.26;58.96;98946.91;5056983;28;20078;-91
2022/01/05 00:20:01;;;;;;;3.47;1.80;;;;;;;19.28;58.79;98941.53;5056705;28;20044;-92
2022/01/05 00:22:26;;;;;;;5.78;2.25;;;;;;;19.28;58.82;98937.06;5056632;28;20028;-89
2022/01/05 00:24:52;;;;;;;4.18;1.85;;;;;;;19.30;58.69;98940.50;5056182;28;20068;-92
2022/01/05 00:27:18;;;;;;;3.97;1.90;;;;;;;19.31;58.74;98934.25;5057046;28;20025;-92
2022/01/05 00:29:43;;;;;;;2.95;1.30;;;;;;;19.34;58.65;98929.72;5056739;28;20039;-90
2022/01/05 00:32:09;;;;;;;3.40;1.45;;;;;;;19.34;58.73;98929.72;5056611;28;20108;-92
2022/01/05 00:34:36;;;;;;;3.35;1.65;;;;;;;19.37;58.86;98929.53;5056228;28;20049;-92
2022/01/05 00:37:02;;;;;;;3.55;1.50;;;;;;;19.38;58.79;98936.50;5056239;28;20033;-92
2022/01/05 00:39:28;;;;;;;3.17;1.42;;;;;;;19.40;58.55;98939.91;5056257;28;20231;-93
2022/01/05 00:41:54;;;;;;;3.50;1.58;;;;;;;19.40;58.74;98939.91;5056277;28;20370;-88
2022/01/05 00:44:19;;;;;;;3.60;1.88;;;;;;;19.43;58.40;98945.84;5056274;28;20421;-92
2022/01/05 00:46:45;;;;;;;3.03;1.50;;;;;;;19.45;58.57;98945.75;5056418;28;20032;-91
2022/01/05 00:49:11;;;;;;;2.88;1.60;;;;;;;19.47;58.66;98949.19;5056282;28;20060;-92
2022/01/05 00:51:38;;;;;;;3.20;1.40;;;;;;;19.48;58.57;98947.38;5056063;28;20035;-90
2022/01/05 00:54:04;;;;;;;3.15;1.45;;;;;;;19.48;58.26;98950.88;5056104;28;20033;-89
2022/01/05 00:56:29;;;;;;;2.88;1.30;;;;;;;19.50;58.25;98946.31;5055877;28;20111;-91
2022/01/05 00:58:55;;;;;;;3.47;1.60;;;;;;;19.52;58.31;98948.88;5055850;28;20097;-91
2022/01/05 01:01:20;;;;;;;2.65;1.23;;;;;;;19.53;58.20;98950.56;5056805;28;20048;-91
2022/01/05 01:03:46;;;;;;;3.70;1.60;;;;;;;19.54;58.39;98947.84;5056806;28;20356;-91
2022/01/05 01:06:12;;;;;;;3.92;1.70;;;;;;;19.56;58.34;98953.88;5055932;28;20028;-92
2022/01/05 01:08:37;;;;;;;2.83;1.33;;;;;;;19.57;58.07;98947.63;5056450;28;20061;-91
2022/01/05 01:11:03;;;;;;;4.13;1.60;;;;;;;19.59;58.06;98951.06;5055678;28;20021;-92
2022/01/05 01:13:29;;;;;;;3.30;1.40;;;;;;;19.60;57.98;98951.88;5055651;28;20115;-91
2022/01/05 01:15:54;;;;;;;2.45;1.30;;;;;;;19.62;58.21;98957.09;5055759;28;20025;-92
2022/01/05 01:18:20;;;;;;;3.03;1.30;;;;;;;19.63;57.99;98951.69;5055847;28;20025;-91
2022/01/05 01:20:47;;;;;;;2.63;1.30;;;;;;;19.64;58.09;98953.41;5055481;28;20110;-91
2022/01/05 01:23:14;;;;;;;2.90;1.40;;;;;;;19.66;58.09;98948.00;5055502;28;20040;-90
2022/01/05 01:25:40;;;;;;;3.15;1.40;;;;;;;19.66;58.04;98958.59;5055632;28;20021;-91
2022/01/05 01:28:06;;;;;;;2.47;1.15;;;;;;;19.69;57.99;98953.97;5055364;28;20116;-92
2022/01/05 01:30:32;;;;;;;3.22;1.40;;;;;;;19.70;58.04;98957.44;5055539;28;20036;-91
2022/01/05 01:32:59;;;;;;;3.22;1.35;;;;;;;19.71;58.17;98944.09;5055315;28;20032;-91
2022/01/05 01:35:25;;;;;;;2.63;1.30;;;;;;;19.74;57.82;98948.34;5054061;28;20053;-92
2022/01/05 01:37:55;;;;;;;2.55;1.00;;;;;;;19.76;57.92;98945.63;5055354;28;20033;-91
2022/01/05 01:40:20;;;;;;;2.75;1.10;;;;;;;19.76;57.97;98951.75;5055215;28;20024;-91
2022/01/05 01:42:46;;;;;;;3.00;1.30;;;;;;;19.78;57.76;98955.16;5055065;28;20070;-90
2022/01/05 01:45:12;;;;;;;2.72;1.23;;;;;;;19.77;57.71;98953.47;5055191;28;20032;-91
2022/01/05 01:47:39;;;;;;;2.38;1.00;;;;;;;19.79;57.84;98956.88;5055746;28;20175;-91
2022/01/05 01:50:06;;;;;;;2.42;1.20;;;;;;;19.81;57.79;98954.94;5054879;28;20033;-92
2022/01/05 01:52:31;;;;;;;2.17;1.20;;;;;;;19.83;57.70;98958.38;5055808;28;20036;-89
2022/01/05 01:54:57;;;;;;;2.03;0.98;;;;;;;19.84;57.81;98962.72;5055037;28;20028;-91
2022/01/05 01:57:24;;;;;;;2.13;1.10;;;;;;;19.84;57.73;98960.06;5054941;28;20029;-91
2022/01/05 01:59:50;;;;;;;2.38;1.05;;;;;;;19.86;57.59;98962.63;5054767;28;20044;-91
2022/01/05 02:02:17;;;;;;;1.73;0.80;;;;;;;19.88;57.57;98966.00;5054791;28;20024;-90
2022/01/05 02:04:43;;;;;;;1.98;0.93;;;;;;;19.90;57.33;98973.88;5054793;28;20025;-91
2022/01/05 02:07:10;;;;;;;2.83;1.20;;;;;;;19.90;57.46;98973.88;5054451;28;20486;-92
2022/01/05 02:09:36;;;;;;;4.00;1.00;;;;;;;19.91;57.62;98967.63;5054479;28;20529;-90
2022/01/05 02:12:04;;;;;;;2.20;0.93;;;;;;;19.94;57.33;98964.75;5054539;28;20021;-89
2022/01/05 02:14:30;;;;;;;2.15;0.93;;;;;;;19.95;57.39;98971.78;5055015;28;20029;-89
2022/01/05 02:16:57;;;;;;;3.45;1.02;;;;;;;19.96;57.13;98973.50;5054181;28;20055;-89
2022/01/05 02:19:23;;;;;;;2.92;1.23;;;;;;;19.96;57.28;98973.50;5054214;28;20043;-90
2022/01/05 02:21:49;;;;;;;1.90;0.95;;;;;;;19.97;57.20;98969.91;5054426;28;20048;-90
2022/01/05 02:24:15;;;;;;;2.03;0.93;;;;;;;19.98;57.30;98974.25;5054209;28;20036;-89
2022/01/05 02:26:42;;;;;;;4.22;1.17;;;;;;;20.00;57.47;98959.09;5070827;28;20462;-91
2022/01/05 02:29:07;;;;;;;2.25;1.10;;;;;;;20.03;57.21;98964.19;5054760;28;20115;-92
2022/01/05 02:31:33;;;;;;;1.80;1.17;;;;;;;20.02;57.24;98966.94;5071113;28;20120;-90
2022/01/05 02:33:59;;;;;;;1.85;0.90;;;;;;;20.03;57.25;98964.19;5054300;28;20116;-90
2022/01/05 02:36:25;;;;;;;2.10;0.88;;;;;;;20.06;57.30;98979.91;5055341;28;20108;-89
2022/01/05 02:38:52;;;;;;;2.00;0.95;;;;;;;20.06;57.22;98979.91;5055345;28;20083;-90
2022/01/05 02:41:19;;;;;;;2.00;0.90;;;;;;;20.08;56.88;98978.00;5054348;28;20052;-90
2022/01/05 02:43:45;;;;;;;2.17;0.80;;;;;;;20.08;57.19;98983.28;5054150;28;20028;-90
2022/01/05 02:46:13;;;;;;;1.77;0.85;;;;;;;20.09;57.24;98978.84;5054101;28;20082;-89
2022/01/05 02:48:40;;;;;;;1.98;0.90;;;;;;;20.11;57.10;98982.25;5053572;28;20029;-90
2022/01/05 02:51:06;;;;;;;2.22;1.10;;;;;;;20.12;56.94;98976.00;5054790;28;20033;-89
2022/01/05 02:53:34;;;;;;;2.75;1.10;;;;;;;20.10;56.63;98976.09;5053955;28;20170;-89
2022/01/05 02:56:00;;;;;;;2.22;0.95;;;;;;;20.12;57.05;98979.50;5053750;28;20040;-89
2022/01/05 02:58:26;;;;;;;1.70;0.82;;;;;;;20.14;56.87;98973.25;5053683;28;20033;-90
2022/01/05 03:00:51;;;;;;;1.77;0.75;;;;;;;20.16;56.72;98984.59;5053861;28;20044;-89
2022/01/05 03:03:17;;;;;;;1.98;0.82;;;;;;;20.18;56.83;98988.84;5053861;28;20036;-87
2022/01/05 03:05:43;;;;;;;2.38;0.82;;;;;;;20.18;56.89;98988.84;5054593;28;20036;-90
2022/01/05 03:08:08;;;;;;;2.03;0.70;;;;;;;20.19;56.65;98979.09;5053828;28;20060;-91
2022/01/05 03:10:34;;;;;;;2.67;0.90;;;;;;;20.20;56.64;98980.78;5053938;28;20340;-91
2022/01/05 03:13:00;;;;;;;1.20;0.70;;;;;;;20.22;56.62;98984.19;5054136;28;20029;-90
2022/01/05 03:15:25;;;;;;;1.75;0.80;;;;;;;20.22;56.46;98982.41;5053729;28;20036;-91
2022/01/05 03:17:51;;;;;;;1.83;0.80;;;;;;;20.22;56.29;98990.34;5053953;28;20033;-91
2022/01/05 03:20:20;;;;;;;1.63;0.85;;;;;;;20.24;56.54;98984.97;5053885;28;20428;-90
2022/01/05 03:22:46;;;;;;;2.25;0.98;;;;;;;20.26;56.44;98985.69;5070448;28;20044;-91
2022/01/05 03:25:16;;;;;;;1.63;0.75;;;;;;;20.25;56.66;98989.31;5053835;28;20025;-91
2022/01/05 03:27:47;;;;;;;2.13;0.70;;;;;;;20.26;56.66;98986.53;5053865;28;20114;-91
2022/01/05 03:30:25;;;;;;;2.45;0.95;;;;;;;20.27;56.58;98995.34;5053466;28;20116;-91
2022/01/05 03:35:28;;;;;;;3.00;0.93;;;;;;;20.30;56.22;98996.94;5054406;28;20542;-91
2022/01/05 03:37:54;;;;;;;1.73;0.75;;;;;;;20.30;56.33;98999.59;5053752;28;20444;-90
2022/01/05 03:40:20;;;;;;;1.85;0.77;;;;;;;20.30;56.40;99000.44;5053773;28;20043;-90
2022/01/05 03:42:46;;;;;;;1.65;0.70;;;;;;;20.33;56.36;99002.88;5053269;28;20451;-90
2022/01/05 03:45:12;;;;;;;1.13;0.50;;;;;;;20.30;56.29;98996.94;5053304;28;20035;-90
2022/01/05 03:47:37;;;;;;;1.77;0.63;;;;;;;20.33;56.26;99013.47;5053345;28;20047;-89
2022/01/05 03:50:03;;;;;;;1.45;0.65;;;;;;;20.33;56.00;99018.78;5053446;28;20128;-90
2022/01/05 03:52:28;;;;;;;2.70;0.70;;;;;;;20.35;55.98;99022.16;5054314;28;20057;-88
2022/01/05 03:54:54;;;;;;;1.15;0.70;;;;;;;20.36;56.02;99018.59;5054430;28;20486;-89
2022/01/05 03:57:20;;;;;;;1.58;0.57;;;;;;;20.34;55.98;99012.53;5054377;28;20029;-89
2022/01/05 03:59:45;;;;;;;1.58;0.73;;;;;;;20.36;56.26;99023.88;5055279;28;20036;-89
2022/01/05 04:02:11;;;;;;;1.88;0.60;;;;;;;20.36;55.83;99023.88;5056736;28;20040;-89
2022/01/05 04:04:37;;;;;;;2.85;0.80;;;;;;;20.37;56.16;99020.28;5058558;28;20063;-90
2022/01/05 04:07:03;;;;;;;1.92;0.70;;;;;;;20.39;56.03;99023.69;5056776;28;20029;-89
2022/01/05 04:09:28;;;;;;;1.10;0.50;;;;;;;20.39;56.01;99025.50;5056681;28;20112;-90
2022/01/05 04:11:54;;;;;;;1.58;0.60;;;;;;;20.39;55.99;99026.31;5073369;28;20118;-88
2022/01/05 04:14:19;;;;;;;1.95;0.60;;;;;;;20.41;56.12;99022.72;5056666;28;20068;-91
2022/01/05 04:16:45;;;;;;;2.28;0.82;;;;;;;20.42;55.98;99032.38;5056506;28;20025;-90
2022/01/05 04:19:10;;;;;;;1.13;0.57;;;;;;;20.42;56.09;99027.06;5056642;28;20475;-91
2022/01/05 04:21:36;;;;;;;1.95;0.63;;;;;;;20.42;56.00;99029.72;5056518;28;20056;-88
2022/01/05 04:24:02;;;;;;;1.58;0.40;;;;;;;20.43;56.00;99034.09;5056324;28;20029;-90
2022/01/05 04:26:27;;;;;;;1.52;0.50;;;;;;;20.44;55.74;99035.78;5056543;28;20029;-89
2022/01/05 04:28:53;;;;;;;1.65;0.50;;;;;;;20.45;55.82;99037.47;5057344;28;20428;-89
2022/01/05 04:31:18;;;;;;;1.77;0.57;;;;;;;20.45;55.96;99042.78;5056273;28;20222;-88
2022/01/05 04:33:44;;;;;;;1.88;0.63;;;;;;;20.47;55.79;99048.81;5056266;28;20033;-90
2022/01/05 04:36:09;;;;;;;2.72;0.70;;;;;;;20.48;55.60;99053.19;5055744;28;20053;-89
2022/01/05 04:38:35;;;;;;;1.35;0.45;;;;;;;20.48;55.80;99058.50;5056180;28;20035;-89
2022/01/05 04:41:01;;;;;;;2.03;0.60;;;;;;;20.49;55.56;99061.03;5056907;28;20032;-90
2022/01/05 04:43:26;;;;;;;2.03;0.80;;;;;;;20.50;55.60;99061.88;5055920;28;20455;-90
2022/01/05 04:45:52;;;;;;;1.10;0.45;;;;;;;20.50;55.65;99072.47;5056238;28;20036;-90
2022/01/05 04:48:18;;;;;;;1.35;0.50;;;;;;;20.51;55.57;99068.88;5055855;28;20032;-88
2022/01/05 04:50:43;;;;;;;1.65;0.60;;;;;;;20.51;55.52;99075.03;5055911;28;20021;-90
2022/01/05 04:53:11;;;;;;;1.83;0.80;;;;;;;20.53;55.45;99080.22;5055943;28;20024;-89
2022/01/05 04:55:39;;;;;;;2.15;0.90;;;;;;;20.53;55.44;99086.38;5055949;28;20120;-88
2022/01/05 04:58:04;;;;;;;1.65;0.90;;;;;;;20.54;55.82;99092.53;5055586;28;20043;-89
2022/01/05 05:00:30;;;;;;;1.25;0.55;;;;;;;20.54;55.63;99100.50;5055720;28;20447;-89
2022/01/05 05:02:55;;;;;;;1.55;0.63;;;;;;;20.56;55.23;99103.03;5055723;28;20114;-90
2022/01/05 05:05:21;;;;;;;2.17;0.68;;;;;;;20.53;55.58;99104.06;5055632;28;20040;-89
2022/01/05 05:07:47;;;;;;;2.78;0.80;;;;;;;20.55;55.48;99112.78;5055684;28;20029;-90
2022/01/05 05:10:12;;;;;;;2.05;0.70;;;;;;;20.58;55.51;99117.06;5056194;28;20029;-89
2022/01/05 05:12:38;;;;;;;7.22;0.98;;;;;;;20.57;55.43;99126.78;5055034;28;20035;-88
2022/01/05 05:15:04;;;;;;;1.35;0.50;;;;;;;20.57;55.17;99126.78;5055016;28;20029;-88
2022/01/05 05:17:30;;;;;;;2.55;0.80;;;;;;;20.57;55.10;99129.44;5055905;28;20112;-88
2022/01/05 05:19:55;;;;;;;1.98;0.70;;;;;;;20.58;55.10;99148.84;5055062;28;20029;-87
2022/01/05 05:22:21;;;;;;;1.58;0.60;;;;;;;20.58;54.94;99144.38;5055178;28;20050;-87
2022/01/05 05:24:46;;;;;;;2.03;0.80;;;;;;;20.58;54.74;99143.56;5055279;28;20033;-89
2022/01/05 05:27:12;;;;;;;1.70;0.40;;;;;;;20.59;54.95;99154.03;5055149;28;20040;-88
2022/01/05 05:29:37;;;;;;;1.90;0.50;;;;;;;20.60;54.96;99155.75;5055166;28;20043;-90
2022/01/05 05:32:03;;;;;;;1.80;0.40;;;;;;;20.60;55.14;99163.72;5055121;28;20417;-90
2022/01/05 05:34:29;;;;;;;1.83;0.50;;;;;;;20.61;54.93;99178.66;5054682;28;20048;-90
2022/01/05 05:36:54;;;;;;;2.80;0.70;;;;;;;20.61;54.76;99175.16;5054956;28;20470;-88
2022/01/05 05:39:20;;;;;;;1.88;0.68;;;;;;;20.62;54.85;99184.81;5054969;28;20036;-88
2022/01/05 05:41:45;;;;;;;2.40;0.77;;;;;;;20.61;54.96;99186.63;5054999;28;20029;-88
2022/01/05 05:44:11;;;;;;;3.47;0.90;;;;;;;20.62;54.96;99187.44;5054649;28;20040;-89
2022/01/05 05:46:36;;;;;;;1.85;0.68;;;;;;;20.63;54.55;99195.31;5055414;28;20029;-88
2022/01/05 05:49:02;;;;;;;1.55;0.57;;;;;;;20.62;54.81;99198.91;5054518;28;20087;-88
2022/01/05 05:51:27;;;;;;;1.08;0.40;;;;;;;20.61;54.57;99202.53;5054512;28;20036;-90
2022/01/05 05:53:53;;;;;;;2.90;0.80;;;;;;;20.62;54.70;99206.00;5054740;28;20501;-89
2022/01/05 05:56:18;;;;;;;1.10;0.47;;;;;;;20.64;54.61;99206.78;5054605;28;20025;-88
2022/01/05 05:58:44;;;;;;;1.83;0.50;;;;;;;20.64;54.64;99206.78;5054455;28;20028;-89
2022/01/05 06:01:10;;;;;;;1.75;0.60;;;;;;;20.65;54.60;99225.25;5054568;28;20029;-90
2022/01/05 06:03:35;;;;;;;1.77;0.55;;;;;;;20.64;54.82;99217.38;5054341;28;20506;-89
2022/01/05 06:06:01;;;;;;;2.28;0.68;;;;;;;20.63;54.63;99224.47;5055607;28;20416;-90
2022/01/05 06:08:27;;;;;;;2.05;0.60;;;;;;;20.63;54.48;99224.47;5054585;28;20043;-90
2022/01/05 06:10:52;;;;;;;1.30;0.40;;;;;;;20.63;54.52;99227.13;5054668;28;20112;-90
2022/01/05 06:13:18;;;;;;;2.38;0.60;;;;;;;20.66;54.70;99232.25;5054431;28;20117;-91
2022/01/05 06:15:44;;;;;;;1.90;0.60;;;;;;;20.65;54.37;99235.84;5054319;28;20036;-89
2022/01/05 06:18:09;;;;;;;4.07;0.98;;;;;;;20.66;54.55;99242.84;5054415;28;20463;-90
2022/01/05 06:20:35;;;;;;;2.08;0.80;;;;;;;20.65;54.41;99241.16;5054306;28;20029;-90
2022/01/05 06:23:00;;;;;;;1.55;0.60;;;;;;;20.66;54.74;99250.81;5053960;28;20178;-90
2022/01/05 06:25:26;;;;;;;2.50;0.68;;;;;;;20.65;54.51;99230.56;5054360;28;20025;-90
2022/01/05 06:27:51;;;;;;;3.30;0.55;;;;;;;20.66;54.50;99245.50;5054290;28;20031;-91
2022/01/05 06:30:17;;;;;;;2.35;0.68;;;;;;;20.66;54.20;99242.84;5054202;28;20033;-89
2022/01/05 06:32:45;;;;;;;1.10;0.47;;;;;;;20.68;54.27;99249.84;5054136;28;20025;-90
2022/01/05 06:35:12;;;;;;;2.00;0.55;;;;;;;20.68;54.59;99255.16;5053855;28;20150;-90
2022/01/05 06:37:38;;;;;;;1.45;0.50;;;;;;;20.68;54.39;99250.69;5053995;28;20482;-89
2022/01/05 06:40:04;;;;;;;2.15;0.65;;;;;;;20.67;54.41;99259.59;5053944;28;20020;-90
2022/01/05 06:42:30;;;;;;;2.15;0.60;;;;;;;20.70;54.31;99254.13;5053840;28;20024;-90
2022/01/05 06:44:55;;;;;;;1.63;0.60;;;;;;;20.69;54.43;99257.72;5053845;28;20086;-88
2022/01/05 06:47:21;;;;;;;2.95;0.85;;;;;;;20.68;54.01;99258.66;5053777;28;20367;-88
2022/01/05 06:49:46;;;;;;;2.95;0.90;;;;;;;20.71;54.40;99273.50;5053810;28;20094;-86
2022/01/05 06:52:12;;;;;;;2.30;0.70;;;;;;;20.66;53.98;99269.38;5054887;28;20017;-89
2022/01/05 06:54:41;;;;;;;2.70;1.00;;;;;;;20.62;53.95;99278.44;5053726;28;20017;-87
2022/01/05 06:57:08;;;;;;;2.00;0.75;;;;;;;20.56;53.79;99267.38;5054040;28;20020;-88
2022/01/05 06:59:35;;;;;;;2.63;0.60;;;;;;;20.52;53.59;99285.25;5054259;28;20523;-90
2022/01/05 07:02:00;;;;;;;1.85;0.65;;;;;;;20.46;53.71;99283.00;5054105;28;20021;-90
2022/01/05 07:04:26;;;;;;;1.88;0.50;;;;;;;20.41;54.04;99287.72;5071106;28;20051;-88
2022/01/05 07:06:51;;;;;;;2.70;0.68;;;;;;;20.37;54.06;99295.00;5053908;28;20021;-90
2022/01/05 07:09:17;;;;;;;1.75;0.63;;;;;;;20.32;54.17;99305.91;5054048;28;20029;-88
2022/01/05 07:11:43;;;;;;;1.58;0.60;;;;;;;20.28;54.09;99303.53;5054193;28;20529;-89
2022/01/05 07:14:08;;;;;;;2.45;0.60;;;;;;;20.24;54.09;99309.00;5053877;28;20021;-91
2022/01/05 07:16:34;;;;;;;1.80;0.70;;;;;;;20.21;53.77;99309.22;5053783;28;20035;-90
2022/01/05 07:19:00;;;;;;;1.45;0.50;;;;;;;20.16;54.25;99321.00;5053855;28;20032;-90
2022/01/05 07:21:25;;;;;;;2.22;0.63;;;;;;;20.14;54.23;99321.09;5053864;28;20021;-91
2022/01/05 07:23:51;;;;;;;2.05;0.70;;;;;;;20.08;53.99;99334.72;5054198;28;20033;-90
2022/01/05 07:26:18;;;;;;;2.05;0.60;;;;;;;20.07;54.14;99339.16;5053850;28;20021;-90
2022/01/05 07:28:44;;;;;;;2.03;0.90;;;;;;;20.04;53.98;99342.00;5053940;28;20521;-90
2022/01/05 07:31:10;;;;;;;4.57;0.95;;;;;;;20.02;53.73;99340.38;5053628;28;20024;-89
2022/01/05 07:33:36;;;;;;;2.08;0.52;;;;;;;19.92;54.06;99342.69;5053914;28;20367;-89
2022/01/05 07:36:02;;;;;;;4.43;0.90;;;;;;;19.93;54.23;99347.03;5057303;28;20121;-88
2022/01/05 07:38:29;;;;;;;2.13;0.70;;;;;;;19.90;54.20;99353.34;5057668;28;20525;-90
2022/01/05 07:40:55;;;;;;;2.70;0.70;;;;;;;19.87;54.25;99361.50;5057656;28;20059;-90
2022/01/05 07:43:22;;;;;;;1.65;0.55;;;;;;;19.84;54.02;99367.81;5057039;28;20036;-90
2022/01/05 07:45:49;;;;;;;2.97;0.90;;;;;;;19.79;54.43;99369.00;5057301;28;20043;-90
2022/01/05 07:48:14;;;;;;;2.33;1.10;;;;;;;19.79;54.28;99371.66;5057919;28;20024;-91
2022/01/05 07:50:40;;;;;;;1.23;0.50;;;;;;;19.76;53.79;99379.78;5057961;28;20473;-90
2022/01/05 07:53:05;;;;;;;2.58;0.63;;;;;;;19.73;53.98;99386.09;5057513;28;20039;-91
2022/01/05 07:55:32;;;;;;;2.97;0.70;;;;;;;19.71;54.24;99396.78;5057131;28;20379;-90
2022/01/05 07:57:59;;;;;;;3.17;0.80;;;;;;;19.68;54.15;99393.44;5057212;28;20021;-90
2022/01/05 08:00:25;;;;;;;1.92;0.63;;;;;;;19.65;54.12;99410.38;5056953;28;20522;-91
2022/01/05 08:02:51;;;;;;;2.25;0.65;;;;;;;19.63;54.22;99406.09;5057058;28;20043;-88
2022/01/05 08:05:16;;;;;;;1.80;0.60;;;;;;;19.62;54.24;99409.69;5056880;28;20021;-90
2022/01/05 08:07:42;;;;;;;2.28;0.60;;;;;;;19.60;54.39;99407.13;5056937;28;20025;-90
2022/01/05 08:10:08;;;;;;;2.78;0.77;;;;;;;19.54;54.24;99405.69;5057023;28;20032;-90
2022/01/05 08:12:33;;;;;;;1.85;0.82;;;;;;;19.57;54.26;99409.94;5057615;28;20032;-90
2022/01/05 08:14:59;;;;;;;0.90;0.40;;;;;;;19.53;54.30;99411.91;5056965;28;20021;-89
2022/01/05 08:17:25;;;;;;;2.13;0.63;;;;;;;19.53;54.65;99416.34;5056582;28;20036;-91
2022/01/05 08:19:50;;;;;;;1.90;0.60;;;;;;;19.47;54.26;99417.56;5056553;28;20021;-90
2022/01/05 08:22:16;;;;;;;1.83;0.60;;;;;;;19.45;54.79;99430.00;5057590;28;20352;-89
2022/01/05 08:24:41;;;;;;;2.70;0.70;;;;;;;19.42;54.46;99428.38;5056364;28;20039;-88
2022/01/05 08:27:07;;;;;;;3.10;0.70;;;;;;;19.43;54.65;99426.59;5056248;28;20020;-89
2022/01/05 08:29:32;;;;;;;1.80;0.80;;;;;;;19.42;54.55;99438.13;5056337;28;20031;-89
2022/01/05 08:32:02;;;;;;;2.63;0.70;;;;;;;19.39;54.50;99435.63;5056809;28;20071;-91
2022/01/05 08:34:31;;;;;;;2.03;0.60;;;;;;;19.39;54.15;99440.91;5056237;28;20388;-90
2022/01/05 08:36:58;;;;;;;2.67;0.70;;;;;;;19.35;54.50;99445.53;5056450;28;20544;-90
2022/01/05 08:39:23;;;;;;;1.35;0.52;;;;;;;19.35;54.61;99444.66;5056266;28;20029;-87
2022/01/05 08:41:50;;;;;;;2.28;0.60;;;;;;;19.31;54.15;99439.56;5056360;28;20466;-88
2022/01/05 08:44:16;;;;;;;1.52;0.70;;;;;;;19.28;54.16;99450.28;5056123;28;20112;-89
2022/01/05 08:46:41;;;;;;;1.73;0.63;;;;;;;19.28;54.72;99449.44;5056104;28;20111;-89
2022/01/05 08:49:07;;;;;;;0.93;0.50;;;;;;;19.27;54.35;99448.59;5056380;28;20021;-89
2022/01/05 08:51:33;;;;;;;1.85;0.95;;;;;;;19.23;54.45;99462.91;5061905;28;20028;-83
2022/01/05 08:53:58;;;;;;;2.15;0.70;;;;;;;19.22;54.08;99466.50;5070518;28;20025;-84
2022/01/05 08:56:25;;;;;;;2.42;0.73;;;;;;;19.25;54.23;99473.41;5072295;28;20021;-88
2022/01/05 08:58:51;;;;;;;2.00;0.73;;;;;;;19.22;54.09;99466.50;5082059;28;20459;-90
2022/01/05 09:01:16;;;;;;;2.40;0.50;;;;;;;19.17;54.18;99476.47;5076522;28;20031;-91
2022/01/05 09:03:42;;;;;;;2.50;0.93;;;;;;;19.18;54.11;99480.84;5076436;28;20063;-85
2022/01/05 09:06:07;;;;;;;2.80;1.00;;;;;;;19.14;54.20;99481.94;5091793;28;20020;-88
2022/01/05 09:08:34;;;;;;;2.05;0.65;;;;;;;19.14;54.09;99487.22;5072026;28;20078;-87
2022/01/05 09:11:00;;;;;;;3.90;0.90;;;;;;;19.14;53.93;99489.88;5054874;28;20025;-86
2022/01/05 09:13:25;;;;;;;1.73;0.70;;;;;;;19.12;54.07;99492.59;5055052;28;20027;-87
2022/01/05 09:15:52;;;;;;;1.63;0.68;;;;;;;19.08;54.18;99496.31;5054713;28;20021;-87
2022/01/05 09:18:17;;;;;;;2.45;0.70;;;;;;;19.08;54.00;99504.25;5071934;28;20031;-88
2022/01/05 09:20:43;;;;;;;2.05;0.73;;;;;;;19.09;54.24;99491.91;5071846;28;20029;-83
2022/01/05 09:23:09;;;;;;;2.85;0.80;;;;;;;19.04;53.90;99500.91;5061247;28;20490;-86
2022/01/05 09:25:34;;;;;;;1.77;0.55;;;;;;;19.07;53.90;99489.31;5073790;28;20115;-85
2022/01/05 09:28:01;;;;;;;1.77;0.50;;;;;;;19.01;54.09;99484.31;5071317;28;20067;-88
2022/01/05 09:30:27;;;;;;;2.10;0.60;;;;;;;19.03;53.87;99483.34;5054696;28;20013;-87
2022/01/05 09:32:54;;;;;;;3.17;0.80;;;;;;;19.02;54.33;99476.31;5071397;28;20039;-89
2022/01/05 09:35:23;;;;;;;1.73;0.70;;;;;;;19.01;54.36;99474.63;5055768;28;20072;-89
2022/01/05 09:38:22;;;;;;;2.50;0.82;;;;;;;19.00;54.14;99475.56;5071618;28;20089;-88
2022/01/05 09:43:21;;;;;;;2.90;0.80;;;;;;;18.98;54.11;99493.28;5075532;28;20039;-85
2022/01/05 09:46:12;;;;;;;3.03;0.85;;;;;;;18.98;54.02;99501.19;5074660;28;20025;-88
2022/01/05 09:48:56;;;;;;;3.30;0.85;;;;;;;18.97;54.01;99515.38;5073952;28;20111;-87
2022/01/05 09:51:25;;;;;;;3.35;0.70;;;;;;;18.96;54.00;99518.06;5074455;28;20040;-91
2022/01/05 09:53:52;;;;;;;3.83;0.95;;;;;;;19.00;53.87;99541.66;5075003;28;20017;-92
2022/01/05 09:56:19;;;;;;;3.38;0.77;;;;;;;18.98;53.85;99542.69;5074192;28;20048;-91
2022/01/05 09:58:45;;;;;;;2.28;0.98;;;;;;;18.96;54.24;99534.81;5071055;28;20025;-88
2022/01/05 10:01:10;;;;;;;1.80;0.75;;;;;;;18.95;54.00;99533.09;5070992;28;20128;-88
2022/01/05 10:03:36;;;;;;;2.80;0.68;;;;;;;18.91;54.00;99531.53;5071083;28;20024;-88
2022/01/05 10:06:02;;;;;;;3.05;0.73;;;;;;;18.91;54.01;99536.84;5071331;28;20506;-91
2022/01/05 10:08:28;;;;;;;2.15;0.80;;;;;;;18.89;54.09;99522.84;5072007;28;20032;-90
2022/01/05 10:10:54;;;;;;;1.95;0.75;;;;;;;18.90;53.97;99535.13;5070864;28;20047;-89
2022/01/05 10:13:20;;;;;;;2.17;0.95;;;;;;;18.85;53.78;99540.66;5055301;28;20401;-87
2022/01/05 10:15:45;;;;;;;2.72;1.00;;;;;;;18.87;54.07;99546.72;5054782;28;20025;-93
2022/01/05 10:18:12;;;;;;;1.83;0.70;;;;;;;18.87;54.21;99535.28;5071255;28;20021;-89
2022/01/05 10:20:54;;;;;;;2.00;0.70;;;;;;;18.86;53.82;99538.84;5053951;28;20029;-90
2022/01/05 10:23:45;;;;;;;1.65;0.65;;;;;;;18.90;53.89;99551.84;5055245;28;20447;-88
2022/01/05 10:26:31;;;;;;;3.25;0.75;;;;;;;18.85;54.22;99542.44;5046554;28;20107;-89
2022/01/05 10:29:03;;;;;;;2.05;0.77;;;;;;;18.83;53.94;99545.16;5054345;28;20025;-89
2022/01/05 10:31:56;;;;;;;2.05;0.80;;;;;;;18.83;53.82;99541.66;5068159;28;20020;-89
2022/01/05 10:34:24;;;;;;;2.53;0.90;;;;;;;18.86;53.98;99539.72;5084010;28;20374;-88
2022/01/05 10:36:59;;;;;;;2.53;0.77;;;;;;;18.84;53.85;99544.22;5090738;28;20090;-89
2022/01/05 10:39:28;;;;;;;2.20;0.63;;;;;;;18.88;53.89;99539.63;5090551;28;20042;-88
2022/01/05 10:41:54;;;;;;;2.15;0.70;;;;;;;18.84;54.07;99531.00;5090608;28;20374;-90
2022/01/05 10:44:23;;;;;;;2.05;0.73;;;;;;;18.83;53.94;99539.03;5089772;28;20099;-89
2022/01/05 10:46:52;;;;;;;1.58;0.85;;;;;;;18.82;53.79;99538.16;5073274;28;20115;-90
2022/01/05 10:49:36;;;;;;;3.47;1.10;;;;;;;18.81;53.77;99530.28;5067338;28;20032;-88
2022/01/05 10:52:22;;;;;;;2.63;0.80;;;;;;;18.81;53.67;99535.59;5058587;28;20039;-91
2022/01/05 10:54:49;;;;;;;2.08;0.70;;;;;;;18.79;53.90;99527.72;5060145;28;20115;-89
2022/01/05 10:57:16;;;;;;;2.03;0.75;;;;;;;18.76;54.03;99531.41;5064737;28;20355;-89
2022/01/05 10:59:44;;;;;;;2.92;0.82;;;;;;;18.76;54.00;99536.69;5062051;28;20047;-90
2022/01/05 11:02:30;;;;;;;2.47;0.77;;;;;;;18.76;53.76;99538.47;5074853;28;20090;-90
2022/01/05 11:05:08;;;;;;;2.35;0.60;;;;;;;18.74;53.95;99538.53;5090009;28;20343;-91
2022/01/05 11:07:39;;;;;;;2.22;0.77;;;;;;;18.77;53.50;99533.13;5074526;28;20055;-91
2022/01/05 11:10:25;;;;;;;2.40;0.60;;;;;;;18.76;53.78;99527.91;5095053;28;20028;-91
2022/01/05 11:12:54;;;;;;;2.88;0.65;;;;;;;18.77;53.81;99529.59;5077565;28;20024;-91
2022/01/05 11:15:31;;;;;;;1.77;0.75;;;;;;;18.75;53.31;99532.31;5094777;28;20056;-91
2022/01/05 11:18:20;;;;;;;2.58;0.90;;;;;;;18.78;53.09;99524.25;5093975;28;20352;-90
2022/01/05 11:20:55;;;;;;;1.10;0.57;;;;;;;18.76;53.54;99528.75;5093695;28;20061;-91
2022/01/05 11:23:25;;;;;;;3.08;0.98;;;;;;;18.76;53.35;99527.91;5077928;28;20023;-89
2022/01/05 11:25:53;;;;;;;2.33;0.70;;;;;;;18.73;53.43;99513.03;5076900;28;20020;-90
2022/01/05 11:28:22;;;;;;;2.53;0.68;;;;;;;18.71;53.33;99520.22;5076993;28;20122;-91
2022/01/05 11:30:49;;;;;;;1.95;0.60;;;;;;;18.70;53.07;99523.75;5084129;28;20029;-91
2022/01/05 11:33:16;;;;;;;4.28;1.35;;;;;;;18.71;53.20;99520.22;5074337;28;20021;-91
2022/01/05 11:35:42;;;;;;;3.28;0.80;;;;;;;18.68;53.09;99523.00;5073711;28;20049;-90
2022/01/05 11:38:08;;;;;;;3.85;0.80;;;;;;;18.71;53.01;99516.69;5074226;28;20068;-90